createdAt,value
2018-05-01T00:00:35.934Z,94911.20
2018-05-01T00:03:05.020Z,94919.02
2018-05-01T00:05:34.394Z,94924.89
2018-05-01T00:08:04.392Z,94929.56
2018-05-01T00:10:33.733Z,94929.78
2018-05-01T00:15:38.526Z,94924.89
2018-05-01T00:18:07.964Z,94922.00
2018-05-01T00:23:12.927Z,94915.67
2018-05-01T00:25:42.006Z,94919.13
2018-05-01T00:28:11.037Z,94923.03
2018-05-01T00:30:40.090Z,94921.02
2018-05-01T00:33:09.173Z,94921.33
2018-05-01T00:35:38.220Z,94919.28
2018-05-01T00:38:07.265Z,94919.11
2018-05-01T00:40:36.366Z,94918.68
2018-05-01T00:43:05.579Z,94923.59
2018-05-01T00:45:34.625Z,94919.52
2018-05-01T00:48:03.882Z,94917.75
2018-05-01T00:50:32.907Z,94917.03
2018-05-01T00:53:01.961Z,94918.14
2018-05-01T00:55:31.006Z,94915.84
2018-05-01T00:58:00.062Z,94912.55
2018-05-01T01:00:29.141Z,94907.72
2018-05-01T01:02:58.189Z,94901.27
2018-05-01T01:05:27.217Z,94904.08
2018-05-01T01:07:56.347Z,94903.14
2018-05-01T01:10:25.410Z,94902.78
2018-05-01T01:12:54.488Z,94901.33
2018-05-01T01:15:23.785Z,94902.90
2018-05-01T01:17:54.926Z,94899.94
2018-05-01T01:20:24.163Z,94899.20
2018-05-01T01:22:53.189Z,94898.32
2018-05-01T01:25:22.234Z,94899.14
2018-05-01T01:27:51.330Z,94898.09
2018-05-01T01:30:21.543Z,94894.55
2018-05-01T01:32:53.617Z,94893.14
2018-05-01T01:35:22.834Z,94895.37
2018-05-01T01:37:52.046Z,94893.45
2018-05-01T01:42:55.993Z,94896.47
2018-05-01T01:45:24.252Z,94892.31
2018-05-01T01:50:28.205Z,94884.73
2018-05-01T01:52:56.498Z,94889.48
2018-05-01T01:55:24.736Z,94890.88
2018-05-01T02:00:29.683Z,94900.75
2018-05-01T02:02:57.951Z,94906.49
2018-05-01T02:05:26.206Z,94912.88
2018-05-01T02:07:54.673Z,94914.73
2018-05-01T02:10:22.925Z,94917.45
2018-05-01T02:15:26.877Z,94916.95
2018-05-01T02:20:28.795Z,94916.99
2018-05-01T02:22:57.086Z,94916.74
2018-05-01T02:25:25.334Z,94918.06
2018-05-01T02:27:53.658Z,94914.72
2018-05-01T02:30:21.915Z,94914.28
2018-05-01T02:32:50.178Z,94911.95
2018-05-01T02:35:18.431Z,94908.97
2018-05-01T02:40:23.413Z,94904.79
2018-05-01T02:42:51.660Z,94902.78
2018-05-01T02:45:19.909Z,94905.51
2018-05-01T02:47:48.172Z,94897.63
2018-05-01T02:50:16.425Z,94899.47
2018-05-01T02:52:44.694Z,94899.27
2018-05-01T02:55:12.968Z,94903.14
2018-05-01T02:57:41.303Z,94900.75
2018-05-01T03:00:09.541Z,94900.52
2018-05-01T03:02:38.718Z,94898.73
2018-05-01T03:05:07.073Z,94898.94
2018-05-01T03:07:35.317Z,94894.17
2018-05-01T03:10:03.567Z,94894.94
2018-05-01T03:12:31.902Z,94889.59
2018-05-01T03:15:00.151Z,94890.27
2018-05-01T03:17:28.393Z,94900.61
2018-05-01T03:19:56.838Z,94895.59
2018-05-01T03:22:25.066Z,94894.55
2018-05-01T03:24:54.269Z,94897.13
2018-05-01T03:27:22.682Z,94893.63
2018-05-01T03:29:50.929Z,94898.44
2018-05-01T03:32:19.210Z,94897.06
2018-05-01T03:34:47.481Z,94896.59
2018-05-01T03:37:15.725Z,94894.27
2018-05-01T03:39:43.986Z,94895.63
2018-05-01T03:42:12.245Z,94891.90
2018-05-01T03:47:16.512Z,94907.84
2018-05-01T03:49:44.752Z,94910.91
2018-05-01T03:52:13.029Z,94913.23
2018-05-01T03:54:41.304Z,94911.21
2018-05-01T03:57:09.549Z,94917.72
2018-05-01T03:59:38.830Z,94921.88
2018-05-01T04:02:07.104Z,94926.56
2018-05-01T04:04:37.259Z,94932.94
2018-05-01T04:07:05.565Z,94937.72
2018-05-01T04:09:33.837Z,94941.91
2018-05-01T04:12:02.106Z,94943.84
2018-05-01T04:14:31.528Z,94944.23
2018-05-01T04:16:59.795Z,94948.63
2018-05-01T04:19:28.071Z,94948.48
2018-05-01T04:21:56.609Z,94948.69
2018-05-01T04:27:00.812Z,94954.27
2018-05-01T04:29:29.071Z,94964.56
2018-05-01T04:31:57.333Z,94967.33
2018-05-01T04:34:25.668Z,94965.92
2018-05-01T04:36:53.918Z,94962.13
2018-05-01T04:41:57.930Z,94966.84
2018-05-01T04:44:26.220Z,94968.02
2018-05-01T04:46:56.918Z,94976.55
2018-05-01T04:49:27.174Z,94984.80
2018-05-01T04:51:55.602Z,94989.67
2018-05-01T04:54:23.873Z,94997.39
2018-05-01T04:56:52.134Z,95004.73
2018-05-01T04:59:20.854Z,95008.64
2018-05-01T05:07:00.606Z,95013.74
2018-05-01T05:09:28.893Z,95020.18
2018-05-01T05:11:57.215Z,95021.19
2018-05-01T05:14:25.483Z,95027.37
2018-05-01T05:16:53.772Z,95027.48
2018-05-01T05:19:22.052Z,95023.28
2018-05-01T05:21:50.296Z,95014.69
2018-05-01T05:29:31.059Z,94998.38
2018-05-01T05:31:59.321Z,94993.62
2018-05-01T05:34:27.578Z,94993.34
2018-05-01T05:36:55.846Z,94993.02
2018-05-01T05:39:24.134Z,94996.47
2018-05-01T05:41:52.402Z,94999.73
2018-05-01T05:46:56.877Z,95004.88
2018-05-01T05:49:25.138Z,95006.80
2018-05-01T05:51:53.532Z,95014.45
2018-05-01T05:54:21.797Z,95023.63
2018-05-01T05:56:50.198Z,95030.13
2018-05-01T05:59:18.451Z,95029.57
2018-05-01T06:01:47.438Z,95035.45
2018-05-01T06:04:15.696Z,95035.52
2018-05-01T06:06:43.985Z,95039.34
2018-05-01T06:09:12.235Z,95044.36
2018-05-01T06:11:41.151Z,95053.83
2018-05-01T06:14:09.408Z,95050.20
2018-05-01T06:16:38.298Z,95055.06
2018-05-01T06:19:06.559Z,95060.70
2018-05-01T06:21:35.278Z,95061.46
2018-05-01T06:24:03.527Z,95070.17
2018-05-01T06:26:32.148Z,95069.52
2018-05-01T06:29:00.412Z,95075.77
2018-05-01T06:31:29.310Z,95080.22
2018-05-01T06:33:57.581Z,95078.77
2018-05-01T06:36:26.289Z,95080.70
2018-05-01T06:38:54.558Z,95088.36
2018-05-01T06:41:22.846Z,95091.53
2018-05-01T06:43:51.631Z,95093.67
2018-05-01T06:46:19.837Z,95099.11
2018-05-01T06:48:48.118Z,95097.59
2018-05-01T06:51:16.382Z,95097.14
2018-05-01T06:53:45.630Z,95087.15
2018-05-01T06:56:14.220Z,95082.02
2018-05-01T07:01:18.206Z,95089.38
2018-05-01T07:03:49.249Z,95093.08
2018-05-01T07:06:17.916Z,95093.18
2018-05-01T07:08:46.150Z,95090.89
2018-05-01T07:13:50.365Z,95092.59
2018-05-01T07:16:18.638Z,95090.44
2018-05-01T07:18:47.642Z,95100.05
2018-05-01T07:21:16.320Z,95102.11
2018-05-01T07:23:45.815Z,95101.83
2018-05-01T07:26:14.063Z,95100.27
2018-05-01T07:28:42.366Z,95099.81
2018-05-01T07:31:10.623Z,95100.20
2018-05-01T07:36:14.772Z,95103.73
2018-05-01T07:38:43.041Z,95104.01
2018-05-01T07:41:13.047Z,95107.37
2018-05-01T07:43:46.764Z,95111.86
2018-05-01T07:48:51.038Z,95106.63
2018-05-01T07:51:19.550Z,95108.63
2018-05-01T07:53:47.877Z,95122.27
2018-05-01T07:56:16.209Z,95118.27
2018-05-01T07:58:44.473Z,95119.36
2018-05-01T08:01:12.735Z,95123.26
2018-05-01T08:03:41.025Z,95116.28
2018-05-01T08:06:09.768Z,95119.41
2018-05-01T08:08:38.217Z,95116.44
2018-05-01T08:11:07.487Z,95111.08
2018-05-01T08:13:35.744Z,95104.98
2018-05-01T08:16:04.042Z,95097.48
2018-05-01T08:18:33.057Z,95102.20
2018-05-01T08:21:01.354Z,95089.01
2018-05-01T08:23:30.074Z,95084.16
2018-05-01T08:25:58.314Z,95097.59
2018-05-01T08:28:26.579Z,95088.39
2018-05-01T08:30:54.869Z,95083.06
2018-05-01T08:33:28.759Z,95073.56
2018-05-01T08:35:57.633Z,95067.66
2018-05-01T08:38:26.810Z,95070.02
2018-05-01T08:40:55.089Z,95084.42
2018-05-01T08:43:23.341Z,95086.08
2018-05-01T08:45:51.895Z,95099.34
2018-05-01T08:48:20.199Z,95108.98
2018-05-01T08:50:52.099Z,95116.27
2018-05-01T08:53:20.395Z,95112.39
2018-05-01T08:55:48.883Z,95124.07
2018-05-01T08:58:17.160Z,95137.29
2018-05-01T09:00:45.827Z,95138.50
2018-05-01T09:03:15.012Z,95142.43
2018-05-01T09:05:43.838Z,95141.84
2018-05-01T09:08:12.856Z,95145.36
2018-05-01T09:13:16.865Z,95167.28
2018-05-01T09:15:45.141Z,95166.13
2018-05-01T09:18:13.659Z,95163.88
2018-05-01T09:20:41.853Z,95160.91
2018-05-01T09:25:46.267Z,95182.31
2018-05-01T09:28:14.688Z,95188.45
2018-05-01T09:33:19.879Z,95189.86
2018-05-01T09:35:48.154Z,95187.88
2018-05-01T09:38:16.606Z,95186.35
2018-05-01T09:40:44.897Z,95187.39
2018-05-01T09:43:13.162Z,95185.02
2018-05-01T09:45:41.418Z,95180.27
2018-05-01T09:48:09.869Z,95186.28
2018-05-01T09:50:38.136Z,95194.64
2018-05-01T09:53:07.349Z,95195.37
2018-05-01T09:55:36.387Z,95198.81
2018-05-01T09:58:07.229Z,95195.45
2018-05-01T10:00:36.717Z,95184.90
2018-05-01T10:03:05.828Z,95190.55
2018-05-01T10:05:35.027Z,95187.02
2018-05-01T10:08:04.097Z,95185.44
2018-05-01T10:13:10.017Z,95187.08
2018-05-01T10:15:39.652Z,95189.16
2018-05-01T10:18:08.667Z,95191.40
2018-05-01T10:20:38.397Z,95197.28
2018-05-01T10:30:55.293Z,95203.98
2018-05-01T10:33:24.472Z,95197.55
2018-05-01T10:35:54.019Z,95202.53
2018-05-01T10:38:23.088Z,95204.42
2018-05-01T10:40:52.512Z,95209.69
2018-05-01T10:43:21.947Z,95204.89
2018-05-01T10:45:51.136Z,95200.43
2018-05-01T10:48:21.054Z,95198.20
2018-05-01T10:50:50.130Z,95197.83
2018-05-01T10:53:20.808Z,95193.25
2018-05-01T10:56:00.068Z,95194.00
2018-05-01T10:58:43.211Z,95179.69
2018-05-01T11:01:27.385Z,95183.84
2018-05-01T11:06:42.935Z,95181.89
2018-05-01T11:09:21.992Z,95176.95
2018-05-01T11:12:01.977Z,95190.22
2018-05-01T11:17:19.796Z,95185.38
2018-05-01T11:19:59.730Z,95170.47
2018-05-01T11:22:41.030Z,95165.27
2018-05-01T11:25:18.424Z,95166.03
2018-05-01T11:27:58.860Z,95165.73
2018-05-01T11:30:38.331Z,95158.10
2018-05-01T11:33:17.075Z,95152.56
2018-05-01T11:35:54.634Z,95168.28
2018-05-01T11:38:33.179Z,95167.44
2018-05-01T11:41:15.460Z,95167.38
2018-05-01T11:43:57.521Z,95176.39
2018-05-01T11:46:37.629Z,95179.66
2018-05-01T11:49:21.451Z,95173.95
2018-05-01T11:51:51.900Z,95177.13
2018-05-01T11:54:22.210Z,95175.41
2018-05-01T11:56:54.629Z,95167.52
2018-05-01T11:59:24.858Z,95170.87
2018-05-01T12:01:54.357Z,95155.60
2018-05-01T12:04:23.422Z,95156.94
2018-05-01T12:06:52.774Z,95150.22
2018-05-01T12:09:21.846Z,95151.88
2018-05-01T12:11:51.258Z,95151.36
2018-05-01T12:14:20.307Z,95161.13
2018-05-01T12:16:49.358Z,95164.77
2018-05-01T12:21:54.810Z,95167.18
2018-05-01T12:24:25.061Z,95164.17
2018-05-01T12:26:54.613Z,95161.91
2018-05-01T12:29:23.669Z,95154.69
2018-05-01T12:31:53.424Z,95158.47
2018-05-01T12:34:23.707Z,95158.87
2018-05-01T12:36:53.271Z,95162.25
2018-05-01T12:41:59.309Z,95158.95
2018-05-01T12:44:29.049Z,95157.69
2018-05-01T12:47:01.034Z,95154.67
2018-05-01T12:49:30.133Z,95150.68
2018-05-01T12:52:02.734Z,95143.97
2018-05-01T12:54:34.817Z,95148.03
2018-05-01T12:57:10.678Z,95151.27
2018-05-01T12:59:40.947Z,95151.45
2018-05-01T13:04:45.829Z,95141.11
2018-05-01T13:07:16.065Z,95134.30
2018-05-01T13:09:47.082Z,95134.19
2018-05-01T13:14:52.415Z,95126.75
2018-05-01T13:17:21.615Z,95127.50
2018-05-01T13:19:54.208Z,95121.52
2018-05-01T13:22:24.347Z,95115.13
2018-05-01T13:24:54.882Z,95111.85
2018-05-01T13:27:25.526Z,95106.01
2018-05-01T13:29:55.717Z,95103.38
2018-05-01T13:32:25.049Z,95098.97
2018-05-01T13:34:56.002Z,95099.27
2018-05-01T13:40:13.725Z,95089.23
2018-05-01T13:42:54.265Z,95087.47
2018-05-01T13:45:34.183Z,95080.77
2018-05-01T13:48:17.571Z,95081.99
2018-05-01T13:50:58.504Z,95081.00
2018-05-01T13:53:38.210Z,95073.58
2018-05-01T13:56:19.886Z,95073.86
2018-05-01T13:58:57.092Z,95072.14
2018-05-01T14:01:34.769Z,95071.41
2018-05-01T14:04:09.568Z,95075.39
2018-05-01T14:06:42.304Z,95074.16
2018-05-01T14:09:16.061Z,95071.93
2018-05-01T14:14:24.940Z,95062.61
2018-05-01T14:16:58.268Z,95063.28
2018-05-01T14:22:07.054Z,95057.88
2018-05-01T14:24:39.417Z,95064.92
2018-05-01T14:29:50.679Z,95053.13
2018-05-01T14:32:23.853Z,95049.36
2018-05-01T14:35:02.003Z,95057.59
2018-05-01T14:40:12.789Z,95045.16
2018-05-01T14:42:44.997Z,95058.77
2018-05-01T14:45:23.308Z,95066.02
2018-05-01T14:47:56.852Z,95060.57
2018-05-01T14:50:31.606Z,95054.69
2018-05-01T14:53:03.950Z,95057.83
2018-05-01T14:55:42.628Z,95054.96
2018-05-01T15:00:53.933Z,95051.33
2018-05-01T15:03:38.112Z,95055.21
2018-05-01T15:06:16.630Z,95051.19
2018-05-01T15:08:49.555Z,95044.98
2018-05-01T15:11:28.832Z,95043.09
2018-05-01T15:14:03.091Z,95052.81
2018-05-01T15:16:41.144Z,95052.03
2018-05-01T15:19:18.616Z,95059.03
2018-05-01T15:21:54.063Z,95057.23
2018-05-01T15:24:27.258Z,95055.26
2018-05-01T15:29:41.779Z,95055.83
2018-05-01T15:32:22.808Z,95061.02
2018-05-01T15:35:06.719Z,95062.44
2018-05-01T15:37:49.660Z,95057.77
2018-05-01T15:40:25.806Z,95051.04
2018-05-01T15:43:01.819Z,95050.94
2018-05-01T15:50:49.264Z,95051.00
2018-05-01T15:53:24.461Z,95048.52
2018-05-01T15:55:56.691Z,95042.42
2018-05-01T16:01:05.161Z,95040.41
2018-05-01T16:03:37.830Z,95046.91
2018-05-01T16:06:12.667Z,95044.84
2018-05-01T16:08:46.419Z,95052.75
2018-05-01T16:11:18.624Z,95051.10
2018-05-01T16:13:51.001Z,95049.13
2018-05-01T16:16:23.647Z,95050.94
2018-05-01T16:18:57.177Z,95051.09
2018-05-01T16:24:05.861Z,95052.16
2018-05-01T16:26:37.245Z,95054.45
2018-05-01T16:29:09.045Z,95055.44
2018-05-01T16:31:39.915Z,95058.35
2018-05-01T16:36:50.434Z,95059.24
2018-05-01T16:39:22.969Z,95055.64
2018-05-01T16:41:54.696Z,95055.05
2018-05-01T16:49:39.260Z,95050.91
2018-05-01T16:52:11.799Z,95054.16
2018-05-01T16:54:42.784Z,95051.96
2018-05-01T16:57:14.931Z,95054.41
2018-05-01T16:59:47.535Z,95055.94
2018-05-01T17:02:20.537Z,95056.80
2018-05-01T17:04:52.713Z,95058.57
2018-05-01T17:10:01.625Z,95056.38
2018-05-01T17:12:33.884Z,95059.48
2018-05-01T17:15:06.425Z,95062.55
2018-05-01T17:17:40.104Z,95062.91
2018-05-01T17:20:12.755Z,95059.09
2018-05-01T17:22:44.431Z,95062.63
2018-05-01T17:25:16.225Z,95060.77
2018-05-01T17:27:48.016Z,95055.41
2018-05-01T17:30:21.288Z,95058.35
2018-05-01T17:32:53.317Z,95065.08
2018-05-01T17:38:01.857Z,95064.81
2018-05-01T17:40:33.383Z,95066.98
2018-05-01T17:43:05.064Z,95065.83
2018-05-01T17:45:36.253Z,95066.56
2018-05-01T17:50:45.209Z,95082.08
2018-05-01T17:53:17.575Z,95087.64
2018-05-01T17:55:49.150Z,95088.80
2018-05-01T17:58:21.761Z,95090.53
2018-05-01T18:00:53.553Z,95083.87
2018-05-01T18:03:26.007Z,95080.88
2018-05-01T18:06:00.210Z,95083.78
2018-05-01T18:08:31.977Z,95083.02
2018-05-01T18:11:04.078Z,95088.39
2018-05-01T18:13:35.032Z,95090.92
2018-05-01T18:16:06.985Z,95094.30
2018-05-01T18:18:38.808Z,95102.35
2018-05-01T18:21:12.283Z,95111.25
2018-05-01T18:23:44.475Z,95123.37
2018-05-01T18:26:18.285Z,95120.59
2018-05-01T18:28:50.280Z,95117.18
2018-05-01T18:31:22.901Z,95119.36
2018-05-01T18:33:55.002Z,95122.16
2018-05-01T18:36:28.083Z,95118.39
2018-05-01T18:41:39.103Z,95124.62
2018-05-01T18:44:12.665Z,95129.33
2018-05-01T18:46:44.168Z,95132.45
2018-05-01T18:49:16.369Z,95128.02
2018-05-01T18:51:48.596Z,95127.11
2018-05-01T18:54:20.968Z,95128.16
2018-05-01T18:56:52.095Z,95135.46
2018-05-01T18:59:23.639Z,95136.29
2018-05-01T19:01:59.039Z,95136.02
2018-05-01T19:04:32.231Z,95135.41
2018-05-01T19:07:05.881Z,95136.28
2018-05-01T19:09:38.959Z,95138.86
2018-05-01T19:12:12.000Z,95146.82
2018-05-01T19:14:45.066Z,95142.25
2018-05-01T19:17:17.057Z,95145.69
2018-05-01T19:19:48.836Z,95149.98
2018-05-01T19:24:58.176Z,95152.70
2018-05-01T19:30:06.477Z,95156.16
2018-05-01T19:32:39.111Z,95156.45
2018-05-01T19:35:10.784Z,95159.76
2018-05-01T19:37:43.042Z,95154.98
2018-05-01T19:40:15.103Z,95155.62
2018-05-01T19:42:46.916Z,95156.66
2018-05-01T19:45:20.438Z,95151.59
2018-05-01T19:47:54.408Z,95151.61
2018-05-01T19:50:26.093Z,95150.56
2018-05-01T19:52:58.351Z,95149.66
2018-05-01T19:55:31.455Z,95152.88
2018-05-01T19:58:03.890Z,95152.53
2018-05-01T20:00:35.912Z,95150.05
2018-05-01T20:05:43.650Z,95147.17
2018-05-01T20:08:15.715Z,95148.25
2018-05-01T20:10:48.263Z,95145.44
2018-05-01T20:13:21.176Z,95144.53
2018-05-01T20:15:53.208Z,95144.20
2018-05-01T20:21:03.116Z,95146.48
2018-05-01T20:23:34.986Z,95145.32
2018-05-01T20:26:07.586Z,95147.52
2018-05-01T20:28:39.651Z,95147.10
2018-05-01T20:31:12.955Z,95147.63
2018-05-01T20:33:44.749Z,95151.46
2018-05-01T20:36:17.530Z,95155.83
2018-05-01T20:38:50.450Z,95158.83
2018-05-01T20:41:22.840Z,95156.88
2018-05-01T20:43:54.518Z,95155.22
2018-05-01T20:46:26.876Z,95151.15
2018-05-01T20:48:59.343Z,95151.76
2018-05-01T20:54:07.994Z,95152.76
2018-05-01T20:56:41.228Z,95154.13
2018-05-01T20:59:14.067Z,95156.05
2018-05-01T21:01:46.362Z,95159.78
2018-05-01T21:04:19.279Z,95157.06
2018-05-01T21:06:53.152Z,95157.70
2018-05-01T21:09:26.766Z,95155.24
2018-05-01T21:12:01.309Z,95157.87
2018-05-01T21:14:34.590Z,95159.58
2018-05-01T21:17:07.239Z,95160.34
2018-05-01T21:19:41.610Z,95162.36
2018-05-01T21:22:13.960Z,95159.11
2018-05-01T21:24:47.618Z,95161.28
2018-05-01T21:27:21.470Z,95165.05
2018-05-01T21:29:54.508Z,95163.83
2018-05-01T21:32:27.073Z,95161.39
2018-05-01T21:34:59.043Z,95160.70
2018-05-01T21:37:31.172Z,95159.25
2018-05-01T21:42:39.056Z,95160.52
2018-05-01T21:45:10.661Z,95159.98
2018-05-01T21:50:22.082Z,95154.22
2018-05-01T21:52:57.186Z,95154.80
2018-05-01T21:58:07.046Z,95160.04
2018-05-01T22:00:40.604Z,95157.14
2018-05-01T22:03:11.908Z,95154.69
2018-05-01T22:08:20.407Z,95154.45
2018-05-01T22:10:52.344Z,95155.95
2018-05-01T22:13:23.797Z,95155.64
2018-05-01T22:15:56.090Z,95152.73
2018-05-01T22:18:30.815Z,95157.45
2018-05-01T22:21:02.109Z,95157.88
2018-05-01T22:23:35.008Z,95154.56
2018-05-01T22:26:08.752Z,95154.59
2018-05-01T22:28:41.097Z,95156.56
2018-05-01T22:31:11.947Z,95156.72
2018-05-01T22:33:44.336Z,95160.47
2018-05-01T22:36:16.583Z,95160.08
2018-05-01T22:38:48.352Z,95165.38
2018-05-01T22:41:21.038Z,95161.52
2018-05-01T22:43:54.124Z,95162.41
2018-05-01T22:49:04.826Z,95163.23
2018-05-01T22:51:37.282Z,95166.81
2018-05-01T22:54:06.330Z,95163.35
2018-05-01T22:56:35.389Z,95154.56
2018-05-01T22:59:04.446Z,95156.25
2018-05-01T23:01:34.372Z,95155.61
2018-05-01T23:04:04.051Z,95155.38
2018-05-01T23:06:33.899Z,95151.38
2018-05-01T23:09:02.955Z,95149.81
2018-05-01T23:11:36.905Z,95137.80
2018-05-01T23:14:06.080Z,95138.21
2018-05-01T23:16:35.448Z,95138.36
2018-05-01T23:19:04.489Z,95145.86
2018-05-01T23:21:33.538Z,95150.92
2018-05-01T23:24:02.610Z,95160.67
2018-05-01T23:26:31.679Z,95155.58
2018-05-01T23:29:00.721Z,95157.75
2018-05-01T23:31:29.771Z,95160.22
2018-05-01T23:33:59.897Z,95157.47
2018-05-01T23:36:30.007Z,95154.89
2018-05-01T23:41:35.702Z,95135.88
2018-05-01T23:44:04.874Z,95137.20
2018-05-01T23:46:33.910Z,95145.28
2018-05-01T23:49:02.964Z,95144.80
2018-05-01T23:51:32.049Z,95146.84
2018-05-01T23:54:01.094Z,95146.89
2018-05-01T23:56:30.156Z,95159.39
2018-05-01T23:59:00.106Z,95158.09
